createdAt,value
2023-03-22T06:09:43.694Z,11.66
2023-03-22T06:11:46.564Z,11.94
2023-03-22T06:13:49.368Z,12.16
2023-03-22T06:15:52.631Z,12.33
2023-03-22T06:17:55.438Z,12.47
2023-03-22T06:19:58.422Z,12.58
2023-03-22T06:22:01.296Z,12.66
2023-03-22T06:24:04.205Z,12.75
2023-03-22T06:26:11.286Z,12.82
2023-03-22T06:28:14.065Z,12.89
2023-03-22T06:30:19.515Z,12.94
2023-03-22T06:32:23.486Z,13.00
2023-03-22T06:34:26.589Z,13.04
2023-03-22T06:36:30.341Z,13.08
2023-03-22T06:38:50.070Z,13.11
2023-03-22T06:40:52.970Z,13.15
2023-03-22T06:42:57.161Z,13.18
2023-03-22T06:44:59.919Z,13.21
2023-03-22T06:47:02.967Z,13.26
2023-03-22T06:49:06.139Z,13.29
2023-03-22T06:51:09.349Z,13.32
2023-03-22T06:53:12.120Z,13.35
2023-03-22T06:55:15.029Z,13.37
2023-03-22T06:57:17.875Z,13.42
2023-03-22T06:59:22.024Z,13.43
2023-03-22T07:01:24.849Z,13.46
2023-03-22T07:03:27.643Z,13.48
2023-03-22T07:05:30.529Z,13.47
2023-03-22T07:07:33.338Z,13.48
2023-03-22T07:09:36.315Z,13.49
2023-03-22T07:11:39.242Z,13.50
2023-03-22T07:13:42.325Z,13.52
2023-03-22T07:15:46.522Z,13.55
2023-03-22T07:17:49.728Z,13.57
2023-03-22T07:19:53.116Z,13.57
2023-03-22T07:21:58.421Z,13.57
2023-03-22T07:24:01.301Z,13.59
2023-03-22T07:26:06.046Z,13.60
2023-03-22T07:28:10.450Z,13.60
2023-03-22T07:30:14.066Z,13.61
2023-03-22T07:32:18.325Z,13.63
2023-03-22T07:34:21.245Z,13.64
2023-03-22T07:36:25.658Z,13.64
2023-03-22T07:38:28.678Z,13.67
2023-03-22T07:40:31.687Z,13.71
2023-03-22T07:42:34.743Z,13.71
2023-03-22T07:44:37.665Z,13.74
2023-03-22T07:46:40.836Z,13.75
2023-03-22T07:48:45.179Z,13.77
2023-03-22T07:50:48.847Z,13.79
2023-03-22T07:52:51.731Z,13.74
2023-03-22T07:54:54.710Z,13.76
2023-03-22T07:56:57.545Z,13.78
2023-03-22T07:59:00.548Z,13.79
2023-03-22T08:01:05.797Z,13.81
2023-03-22T08:03:08.925Z,13.82
2023-03-22T08:05:13.180Z,13.84
2023-03-22T08:07:18.642Z,13.80
2023-03-22T08:09:21.627Z,13.81
2023-03-22T08:11:24.594Z,13.79
2023-03-22T08:13:27.678Z,13.80
2023-03-22T08:15:30.500Z,13.83
2023-03-22T08:17:33.451Z,13.86
2023-03-22T08:19:36.811Z,13.86
2023-03-22T08:21:41.046Z,13.87
2023-03-22T08:23:43.893Z,13.86
2023-03-22T08:25:46.952Z,13.87
2023-03-22T08:27:49.804Z,13.89
2023-03-22T08:29:52.850Z,13.86
2023-03-22T08:31:56.197Z,13.85
2023-03-22T08:33:59.618Z,13.85
2023-03-22T08:36:09.694Z,13.87
2023-03-22T08:38:13.987Z,13.90
2023-03-22T08:40:17.271Z,13.92
2023-03-22T08:42:20.038Z,13.96
2023-03-22T08:44:22.872Z,13.99
2023-03-22T08:46:25.779Z,14.01
2023-03-22T08:48:30.668Z,13.99
2023-03-22T08:50:34.417Z,14.04
2023-03-22T08:52:37.299Z,14.05
2023-03-22T08:54:41.401Z,14.06
2023-03-22T08:56:44.248Z,14.08
2023-03-22T08:58:47.418Z,14.12
2023-03-22T09:00:50.551Z,14.12
2023-03-22T09:02:53.464Z,14.13
2023-03-22T09:04:56.407Z,14.13
2023-03-22T09:06:59.333Z,14.17
2023-03-22T09:09:02.222Z,14.21
2023-03-22T09:11:09.500Z,14.26
2023-03-22T09:13:13.470Z,14.29
2023-03-22T09:15:16.358Z,14.32
2023-03-22T09:17:22.392Z,14.33
2023-03-22T09:19:34.387Z,14.31
2023-03-22T09:21:38.755Z,14.32
2023-03-22T09:23:42.432Z,14.30
2023-03-22T09:25:47.006Z,14.30
2023-03-22T09:27:51.249Z,14.29
2023-03-22T09:29:54.360Z,14.30
2023-03-22T09:31:59.281Z,14.30
2023-03-22T09:34:02.212Z,14.28
2023-03-22T09:36:05.870Z,14.33
2023-03-22T09:38:09.306Z,14.36
2023-03-22T09:40:13.401Z,14.36
2023-03-22T09:42:31.105Z,14.37
2023-03-22T09:44:40.637Z,14.38
2023-03-22T09:46:48.856Z,14.41
2023-03-22T09:48:53.121Z,14.45
2023-03-22T09:50:57.167Z,14.40
2023-03-22T09:53:01.308Z,14.48
2023-03-22T09:55:04.257Z,14.57
2023-03-22T09:57:12.137Z,14.63
2023-03-22T09:59:19.171Z,14.69
2023-03-22T10:01:35.491Z,14.71
2023-03-22T10:04:14.655Z,14.74
2023-03-22T10:06:20.455Z,14.76
2023-03-22T10:08:44.150Z,14.80
2023-03-22T10:10:47.106Z,14.83
2023-03-22T10:12:57.638Z,14.85
2023-03-22T10:15:07.448Z,14.88
2023-03-22T10:17:17.306Z,14.90
2023-03-22T10:19:24.419Z,14.91
2023-03-22T10:21:27.986Z,14.94
2023-03-22T10:23:35.439Z,14.95
2023-03-22T10:25:40.903Z,14.97
2023-03-22T10:27:44.722Z,15.00
2023-03-22T10:29:52.326Z,15.02
2023-03-22T10:31:55.943Z,15.07
2023-03-22T10:34:03.599Z,15.11
2023-03-22T10:36:10.551Z,15.15
2023-03-22T10:38:20.857Z,15.19
2023-03-22T10:40:27.447Z,15.23
2023-03-22T10:42:32.223Z,15.27
2023-03-22T10:44:45.817Z,15.30
2023-03-22T10:46:52.314Z,15.34
2023-03-22T10:49:00.549Z,15.35
2023-03-22T10:51:05.264Z,15.38
2023-03-22T10:53:12.689Z,15.43
2023-03-22T10:55:16.925Z,15.47
2023-03-22T10:57:19.751Z,15.50
2023-03-22T10:59:48.400Z,15.52
2023-03-22T11:01:52.567Z,15.57
2023-03-22T11:03:59.400Z,15.60
2023-03-22T11:06:08.111Z,15.63
2023-03-22T11:08:15.564Z,15.66
2023-03-22T11:10:32.598Z,15.71
2023-03-22T11:12:37.073Z,15.79
2023-03-22T11:14:44.976Z,15.85
2023-03-22T11:16:56.058Z,15.87
2023-03-22T11:19:03.022Z,15.88
2023-03-22T11:21:10.911Z,15.90
2023-03-22T11:23:17.981Z,15.91
2023-03-22T11:25:27.392Z,15.95
2023-03-22T11:27:33.030Z,15.99
2023-03-22T11:29:45.331Z,15.96
2023-03-22T11:31:56.273Z,15.98
2023-03-22T11:34:01.211Z,16.01
2023-03-22T11:36:06.580Z,16.02
2023-03-22T11:38:25.095Z,16.00
2023-03-22T11:40:29.105Z,16.00
2023-03-22T11:42:35.428Z,15.98
2023-03-22T11:44:38.605Z,15.98
2023-03-22T11:46:51.506Z,15.96
2023-03-22T11:49:01.331Z,15.95
2023-03-22T11:51:11.132Z,15.95
2023-03-22T11:53:20.482Z,15.99
2023-03-22T11:55:23.991Z,16.01
2023-03-22T11:57:30.773Z,16.04
2023-03-22T11:59:39.113Z,16.06
2023-03-22T12:01:46.677Z,16.07
2023-03-22T12:03:53.143Z,16.09
2023-03-22T12:05:57.079Z,16.12
2023-03-22T12:08:05.400Z,16.13
2023-03-22T12:10:16.908Z,16.15
2023-03-22T12:12:24.060Z,16.17
2023-03-22T12:14:30.865Z,16.17
2023-03-22T12:16:42.698Z,16.19
2023-03-22T12:18:54.497Z,16.22
2023-03-22T12:21:01.406Z,16.24
2023-03-22T12:23:15.594Z,16.28
2023-03-22T12:25:24.693Z,16.27
2023-03-22T12:27:32.417Z,16.34
2023-03-22T12:29:39.904Z,16.35
2023-03-22T12:31:53.494Z,16.35
2023-03-22T12:34:06.453Z,16.37
2023-03-22T12:36:18.696Z,16.38
2023-03-22T12:38:36.061Z,16.37
2023-03-22T12:40:44.789Z,16.42
2023-03-22T12:42:58.992Z,16.41
2023-03-22T12:45:06.424Z,16.47
2023-03-22T12:47:19.288Z,16.45
2023-03-22T12:49:29.455Z,16.49
2023-03-22T12:51:37.827Z,16.47
2023-03-22T12:54:13.200Z,16.53
2023-03-22T12:56:25.160Z,16.56
2023-03-22T12:58:29.285Z,16.60
2023-03-22T13:00:40.119Z,16.59
2023-03-22T13:02:51.920Z,16.69
2023-03-22T13:04:57.472Z,16.72
2023-03-22T13:07:12.712Z,16.74
2023-03-22T13:09:20.211Z,16.76
2023-03-22T13:11:39.607Z,16.76
2023-03-22T13:13:45.740Z,16.83
2023-03-22T13:16:02.103Z,16.86
2023-03-22T13:18:05.902Z,16.84
2023-03-22T13:20:41.460Z,16.86
2023-03-22T13:23:28.545Z,16.86
2023-03-22T13:25:36.659Z,16.82
2023-03-22T13:27:45.122Z,16.86
2023-03-22T13:29:54.137Z,16.87
2023-03-22T13:31:59.982Z,16.93
2023-03-22T13:34:05.127Z,16.92
2023-03-22T13:36:33.494Z,16.95
2023-03-22T13:38:47.669Z,16.92
2023-03-22T13:41:13.295Z,16.94
2023-03-22T13:43:29.419Z,16.93
2023-03-22T13:46:27.143Z,16.96
2023-03-22T13:48:53.340Z,16.90
2023-03-22T13:51:24.376Z,16.90
2023-03-22T13:53:56.052Z,16.89
2023-03-22T13:56:16.279Z,16.98
2023-03-22T13:58:52.527Z,16.94
2023-03-22T14:00:58.193Z,17.03
2023-03-22T14:03:17.620Z,17.06
2023-03-22T14:07:46.995Z,17.14
2023-03-22T14:09:53.337Z,17.10
2023-03-22T14:12:06.609Z,17.12
2023-03-22T14:14:17.575Z,17.08
2023-03-22T14:16:34.744Z,17.12
2023-03-22T14:18:43.498Z,17.09
2023-03-22T14:21:03.086Z,17.06
